Time;durP1;ratioP1;P1;durP2;ratioP2;P2;SDS_P1;SDS_P2;PMS_P1;PMS_P2;Temp;Humidity;BMP_temperature;BMP_pressure;BME280_temperature;BME280_humidity;BME280_pressure;Samples;Min_cycle;Max_cycle;Signal;HPM_P1;HPM_P2
2022/01/19 00:01:14;;;;;;;253.73;52.70;;;;;;;;;;4981889;28;20038;-68
2022/01/19 00:03:40;;;;;;;242.77;50.08;;;;;;;;;;4986745;28;20332;-68
2022/01/19 00:06:06;;;;;;;201.43;44.33;;;;;;;;;;4982894;28;20034;-67
2022/01/19 00:08:32;;;;;;;231.50;47.08;;;;;;;;;;4972512;28;20045;-68
2022/01/19 00:10:58;;;;;;;217.73;45.10;;;;;;;;;;4986154;28;20498;-69
2022/01/19 00:13:25;;;;;;;191.07;43.40;;;;;;;;;;4979227;28;20062;-69
2022/01/19 00:15:52;;;;;;;199.98;43.45;;;;;;;;;;4999643;28;20089;-68
2022/01/19 00:18:19;;;;;;;185.20;42.83;;;;;;;;;;4978554;28;20080;-68
2022/01/19 00:20:46;;;;;;;193.35;41.45;;;;;;;;;;4995277;28;20046;-67
2022/01/19 00:23:15;;;;;;;189.63;47.33;;;;;;;;;;4985043;28;20065;-68
2022/01/19 00:25:41;;;;;;;266.88;49.28;;;;;;;;;;4976401;28;20019;-69
2022/01/19 00:28:07;;;;;;;270.52;51.80;;;;;;;;;;4979976;28;20030;-69
2022/01/19 00:30:33;;;;;;;232.50;46.42;;;;;;;;;;4978057;28;20298;-68
2022/01/19 00:32:59;;;;;;;211.70;44.45;;;;;;;;;;4985450;28;20046;-68
2022/01/19 00:35:25;;;;;;;192.38;42.10;;;;;;;;;;4979206;28;20483;-68
2022/01/19 00:37:51;;;;;;;184.40;39.97;;;;;;;;;;4981397;28;20031;-68
2022/01/19 00:40:17;;;;;;;193.95;41.70;;;;;;;;;;4980988;28;20041;-68
2022/01/19 00:42:44;;;;;;;189.77;39.55;;;;;;;;;;4976783;28;20469;-68
2022/01/19 00:45:11;;;;;;;181.35;41.40;;;;;;;;;;4995484;28;20031;-70
2022/01/19 00:47:37;;;;;;;226.68;43.45;;;;;;;;;;4983306;28;20061;-68
2022/01/19 00:50:07;;;;;;;285.38;49.88;;;;;;;;;;4975487;28;20054;-69
2022/01/19 00:52:35;;;;;;;459.35;57.55;;;;;;;;;;4982599;28;20041;-69
2022/01/19 00:55:01;;;;;;;429.30;59.80;;;;;;;;;;4979466;28;20022;-69
2022/01/19 00:57:27;;;;;;;409.85;59.08;;;;;;;;;;5010628;28;20062;-69
2022/01/19 00:59:53;;;;;;;458.25;59.53;;;;;;;;;;4982321;28;20041;-69
2022/01/19 01:02:20;;;;;;;579.15;55.30;;;;;;;;;;4984097;28;20022;-69
2022/01/19 01:04:46;;;;;;;677.17;56.38;;;;;;;;;;4981756;28;20030;-69
2022/01/19 01:07:12;;;;;;;576.58;52.20;;;;;;;;;;4976562;28;20033;-69
2022/01/19 01:09:38;;;;;;;460.73;51.78;;;;;;;;;;4991474;28;20030;-69
2022/01/19 01:12:22;;;;;;;405.02;49.80;;;;;;;;;;4980390;28;20026;-69
2022/01/19 01:20:19;;;;;;;362.23;47.63;;;;;;;;;;4976889;28;20144;-68
2022/01/19 01:22:45;;;;;;;631.25;51.53;;;;;;;;;;4978160;28;20541;-68
2022/01/19 01:25:11;;;;;;;255.07;42.58;;;;;;;;;;4993308;28;20385;-68
2022/01/19 01:27:38;;;;;;;410.55;49.05;;;;;;;;;;4996622;28;20500;-68
2022/01/19 01:30:06;;;;;;;414.92;46.00;;;;;;;;;;4980808;28;20030;-68
2022/01/19 01:32:32;;;;;;;331.02;43.45;;;;;;;;;;4978278;28;20034;-68
2022/01/19 01:34:58;;;;;;;286.63;43.97;;;;;;;;;;4980649;28;20045;-69
2022/01/19 01:37:24;;;;;;;467.55;55.72;;;;;;;;;;4984311;28;20042;-69
2022/01/19 01:39:50;;;;;;;376.85;54.58;;;;;;;;;;4977725;28;20522;-70
2022/01/19 01:42:17;;;;;;;343.23;51.20;;;;;;;;;;4983899;28;20042;-69
2022/01/19 01:44:46;;;;;;;515.88;57.58;;;;;;;;;;4985723;28;20026;-68
2022/01/19 01:47:14;;;;;;;829.88;67.40;;;;;;;;;;4979715;28;20507;-68
2022/01/19 01:55:05;;;;;;;828.53;62.67;;;;;;;;;;4978242;28;20550;-68
2022/01/19 01:57:31;;;;;;;508.38;53.47;;;;;;;;;;4985566;28;20034;-68
2022/01/19 01:59:57;;;;;;;376.55;47.85;;;;;;;;;;4978700;28;20027;-69
2022/01/19 02:02:23;;;;;;;284.60;47.58;;;;;;;;;;4990052;28;20034;-69
2022/01/19 02:04:49;;;;;;;399.70;48.65;;;;;;;;;;4977563;28;20039;-68
2022/01/19 02:07:44;;;;;;;402.60;52.05;;;;;;;;;;4988073;28;20113;-70
2022/01/19 02:15:55;;;;;;;340.27;46.35;;;;;;;;;;4977389;28;20086;-68
2022/01/19 02:23:53;;;;;;;687.50;61.22;;;;;;;;;;4993202;28;20057;-69
2022/01/19 02:26:44;;;;;;;440.25;50.72;;;;;;;;;;4978044;28;20126;-69
2022/01/19 02:29:24;;;;;;;;;;;;;;;;;;4987470;28;20027;-69
2022/01/19 02:42:34;;;;;;;201.85;43.47;;;;;;;;;;4985418;28;20044;-70
2022/01/19 02:49:55;;;;;;;227.18;43.33;;;;;;;;;;4986426;28;20057;-69
2022/01/19 02:52:22;;;;;;;208.80;43.00;;;;;;;;;;4979604;28;20124;-68
2022/01/19 02:54:50;;;;;;;190.90;40.83;;;;;;;;;;5001087;28;20062;-68
2022/01/19 02:57:16;;;;;;;189.95;42.42;;;;;;;;;;4982591;28;20038;-69
2022/01/19 03:06:15;;;;;;;169.23;39.45;;;;;;;;;;4983072;28;20061;-71
2022/01/19 03:10:42;;;;;;;285.25;45.75;;;;;;;;;;4982910;28;20041;-70
2022/01/19 03:13:08;;;;;;;339.15;47.15;;;;;;;;;;4984157;28;20053;-68
2022/01/19 03:15:34;;;;;;;312.98;47.97;;;;;;;;;;4994974;28;20441;-69
2022/01/19 03:18:01;;;;;;;356.80;48.85;;;;;;;;;;4983350;28;20390;-68
2022/01/19 03:20:28;;;;;;;326.67;43.65;;;;;;;;;;4982306;28;20127;-69
2022/01/19 03:23:12;;;;;;;269.98;49.30;;;;;;;;;;4980410;28;20038;-68
2022/01/19 03:25:39;;;;;;;235.70;44.95;;;;;;;;;;4988520;28;20030;-69
2022/01/19 03:28:06;;;;;;;241.52;46.83;;;;;;;;;;4982084;28;20030;-68
2022/01/19 03:30:33;;;;;;;250.32;46.80;;;;;;;;;;4977374;28;20030;-68
2022/01/19 03:32:59;;;;;;;252.10;44.28;;;;;;;;;;4982877;28;20022;-69
2022/01/19 03:35:25;;;;;;;230.32;44.88;;;;;;;;;;4982343;28;20023;-69
2022/01/19 03:37:51;;;;;;;219.65;43.80;;;;;;;;;;4988256;28;20048;-68
2022/01/19 03:40:17;;;;;;;199.15;39.42;;;;;;;;;;4986037;28;20042;-69
2022/01/19 03:42:44;;;;;;;196.90;40.65;;;;;;;;;;4979822;28;20038;-69
2022/01/19 03:45:10;;;;;;;180.00;39.58;;;;;;;;;;4980106;28;20109;-70
2022/01/19 03:47:39;;;;;;;188.32;40.05;;;;;;;;;;4975825;28;20026;-69
2022/01/19 03:50:06;;;;;;;176.20;40.55;;;;;;;;;;4977783;28;20126;-69
2022/01/19 03:52:32;;;;;;;183.85;39.50;;;;;;;;;;4979725;28;20026;-68
2022/01/19 03:54:58;;;;;;;183.95;40.38;;;;;;;;;;4975805;28;20114;-68
2022/01/19 03:57:24;;;;;;;193.52;41.13;;;;;;;;;;4976645;28;20041;-67
2022/01/19 03:59:50;;;;;;;190.63;39.92;;;;;;;;;;4981856;28;20042;-68
2022/01/19 04:02:17;;;;;;;218.23;42.83;;;;;;;;;;4977149;28;20035;-70
2022/01/19 04:04:53;;;;;;;206.07;41.28;;;;;;;;;;4983453;28;20034;-67
2022/01/19 04:07:19;;;;;;;197.60;41.28;;;;;;;;;;4978332;28;20040;-67
2022/01/19 04:09:46;;;;;;;193.88;41.50;;;;;;;;;;4983663;28;20109;-71
2022/01/19 04:12:16;;;;;;;212.38;42.08;;;;;;;;;;4979270;28;20046;-69
2022/01/19 04:14:43;;;;;;;187.38;42.97;;;;;;;;;;4976975;28;20102;-68
2022/01/19 04:17:16;;;;;;;178.50;39.92;;;;;;;;;;4984216;28;20042;-70
2022/01/19 04:19:45;;;;;;;181.35;40.35;;;;;;;;;;4979291;28;20036;-72
2022/01/19 04:22:13;;;;;;;192.57;40.38;;;;;;;;;;4975290;28;20117;-69
2022/01/19 04:24:40;;;;;;;182.35;41.45;;;;;;;;;;4975876;28;20038;-69
2022/01/19 04:29:48;;;;;;;219.52;44.50;;;;;;;;;;4986115;28;20130;-71
2022/01/19 04:32:23;;;;;;;228.32;47.20;;;;;;;;;;4984443;28;20562;-67
2022/01/19 04:34:50;;;;;;;221.43;45.00;;;;;;;;;;4982578;28;20832;-69
2022/01/19 05:04:44;;;;;;;234.23;46.80;;;;;;;;;;4979811;28;20415;-70
2022/01/19 05:07:09;;;;;;;211.43;44.63;;;;;;;;;;4973584;28;20046;-69
2022/01/19 05:14:46;;;;;;;205.20;43.70;;;;;;;;;;4983945;28;20042;-69
2022/01/19 05:17:12;;;;;;;207.43;42.58;;;;;;;;;;4978206;28;21438;-67
2022/01/19 05:19:38;;;;;;;214.55;43.38;;;;;;;;;;4982840;28;20034;-69
2022/01/19 05:22:04;;;;;;;194.75;42.42;;;;;;;;;;4982558;28;20058;-68
2022/01/19 05:24:30;;;;;;;200.00;41.42;;;;;;;;;;4978076;28;20026;-68
2022/01/19 05:26:56;;;;;;;181.65;41.67;;;;;;;;;;4984307;28;20402;-70
2022/01/19 05:29:22;;;;;;;231.23;45.08;;;;;;;;;;4974149;28;20060;-68
2022/01/19 05:31:48;;;;;;;201.13;42.70;;;;;;;;;;4978359;28;20116;-69
2022/01/19 05:34:14;;;;;;;207.80;43.63;;;;;;;;;;4982567;28;20523;-68
2022/01/19 05:36:40;;;;;;;215.80;45.40;;;;;;;;;;4981880;28;20081;-68
2022/01/19 05:39:06;;;;;;;221.38;45.58;;;;;;;;;;4981172;28;20121;-68
2022/01/19 05:41:33;;;;;;;231.57;46.03;;;;;;;;;;4978552;28;20030;-68
2022/01/19 05:43:59;;;;;;;275.02;46.83;;;;;;;;;;4979829;28;20022;-69
2022/01/19 05:46:25;;;;;;;260.38;46.00;;;;;;;;;;4984909;28;20105;-69
2022/01/19 05:48:51;;;;;;;260.55;46.33;;;;;;;;;;4980082;28;20042;-67
2022/01/19 05:51:17;;;;;;;224.90;44.50;;;;;;;;;;4982188;28;20035;-70
2022/01/19 05:53:43;;;;;;;216.18;46.25;;;;;;;;;;4993776;28;20119;-74
2022/01/19 05:56:09;;;;;;;239.63;45.83;;;;;;;;;;4976811;28;20113;-69
2022/01/19 05:58:35;;;;;;;236.05;47.15;;;;;;;;;;4984217;28;20585;-69
2022/01/19 06:01:01;;;;;;;241.93;50.30;;;;;;;;;;4979385;28;20027;-70
2022/01/19 06:03:27;;;;;;;224.15;46.33;;;;;;;;;;4983250;28;20034;-69
2022/01/19 06:05:53;;;;;;;202.57;44.03;;;;;;;;;;4996808;28;20035;-70
2022/01/19 06:10:46;;;;;;;195.05;42.17;;;;;;;;;;4979913;28;20104;-69
2022/01/19 06:13:13;;;;;;;221.38;44.60;;;;;;;;;;4988719;28;20112;-71
2022/01/19 06:15:39;;;;;;;208.73;42.83;;;;;;;;;;4980504;28;20049;-69
2022/01/19 06:18:06;;;;;;;247.10;47.65;;;;;;;;;;4975826;28;21620;-69
2022/01/19 06:20:32;;;;;;;235.50;48.20;;;;;;;;;;4985890;28;20540;-69
2022/01/19 06:22:58;;;;;;;216.95;45.88;;;;;;;;;;4979706;28;20027;-69
2022/01/19 06:25:24;;;;;;;209.98;44.53;;;;;;;;;;4983121;28;20037;-70
2022/01/19 06:27:50;;;;;;;252.10;46.80;;;;;;;;;;4974944;28;20022;-69
2022/01/19 06:30:16;;;;;;;243.95;46.40;;;;;;;;;;4980088;28;20042;-69
2022/01/19 06:32:42;;;;;;;306.88;52.75;;;;;;;;;;4986145;28;20061;-69
2022/01/19 06:35:09;;;;;;;256.48;51.38;;;;;;;;;;4985900;28;20030;-68
2022/01/19 06:37:35;;;;;;;279.35;51.28;;;;;;;;;;4980064;28;20065;-70
2022/01/19 06:40:01;;;;;;;320.08;57.85;;;;;;;;;;4982553;28;20049;-69
2022/01/19 06:42:29;;;;;;;299.05;57.53;;;;;;;;;;4975172;28;20062;-69
2022/01/19 06:44:55;;;;;;;337.05;64.50;;;;;;;;;;4978253;28;20042;-69
2022/01/19 06:47:22;;;;;;;316.40;62.90;;;;;;;;;;4978084;28;20373;-69
2022/01/19 06:49:48;;;;;;;343.45;69.93;;;;;;;;;;4988185;28;20112;-70
2022/01/19 06:52:14;;;;;;;381.02;74.93;;;;;;;;;;4986470;28;20031;-69
2022/01/19 06:54:40;;;;;;;420.88;82.97;;;;;;;;;;4980698;28;20501;-69
2022/01/19 06:57:06;;;;;;;443.58;86.07;;;;;;;;;;4986101;28;20034;-68
2022/01/19 06:59:32;;;;;;;433.33;86.00;;;;;;;;;;4982744;28;20038;-69
2022/01/19 07:01:58;;;;;;;443.92;89.15;;;;;;;;;;4979491;28;20046;-69
2022/01/19 07:04:24;;;;;;;428.30;90.07;;;;;;;;;;4985458;28;20030;-69
2022/01/19 07:06:50;;;;;;;436.83;92.53;;;;;;;;;;4987138;28;20033;-69
2022/01/19 07:09:16;;;;;;;449.40;96.32;;;;;;;;;;4981931;28;20039;-70
2022/01/19 07:11:42;;;;;;;429.73;91.93;;;;;;;;;;4985836;28;20057;-68
2022/01/19 07:14:12;;;;;;;425.95;90.60;;;;;;;;;;4984183;28;20034;-68
2022/01/19 07:16:38;;;;;;;470.42;95.85;;;;;;;;;;4979654;28;20037;-68
2022/01/19 07:19:04;;;;;;;439.88;90.50;;;;;;;;;;4999380;28;20508;-69
2022/01/19 07:21:30;;;;;;;429.52;88.97;;;;;;;;;;4980831;28;20118;-68
2022/01/19 07:23:56;;;;;;;451.73;93.78;;;;;;;;;;4979940;28;20118;-68
2022/01/19 07:26:22;;;;;;;427.30;92.32;;;;;;;;;;4977477;28;20069;-68
2022/01/19 07:28:48;;;;;;;419.83;89.65;;;;;;;;;;4986239;28;20116;-68
2022/01/19 07:31:14;;;;;;;428.30;92.03;;;;;;;;;;4978062;28;20053;-68
2022/01/19 07:33:40;;;;;;;412.25;93.03;;;;;;;;;;4985812;28;20117;-68
2022/01/19 07:36:06;;;;;;;440.17;94.78;;;;;;;;;;4982160;28;20513;-67
2022/01/19 07:38:32;;;;;;;422.00;89.53;;;;;;;;;;4976170;28;20419;-68
2022/01/19 07:40:58;;;;;;;418.88;93.13;;;;;;;;;;4976996;28;20092;-68
2022/01/19 07:43:25;;;;;;;428.63;88.68;;;;;;;;;;4975442;28;21833;-67
2022/01/19 07:45:51;;;;;;;395.52;88.30;;;;;;;;;;4980520;28;20073;-68
2022/01/19 07:48:17;;;;;;;420.33;89.80;;;;;;;;;;4977332;28;20425;-68
2022/01/19 07:50:43;;;;;;;400.67;89.63;;;;;;;;;;4982598;28;20664;-68
2022/01/19 07:53:09;;;;;;;422.02;91.03;;;;;;;;;;5001938;28;20047;-67
2022/01/19 07:55:35;;;;;;;415.55;89.93;;;;;;;;;;4993787;28;20061;-67
2022/01/19 07:58:01;;;;;;;376.77;87.90;;;;;;;;;;4994584;28;20031;-68
2022/01/19 08:00:28;;;;;;;388.13;86.85;;;;;;;;;;4981454;28;20035;-66
2022/01/19 08:02:54;;;;;;;364.42;83.25;;;;;;;;;;4978383;28;20117;-68
2022/01/19 08:05:20;;;;;;;375.10;91.40;;;;;;;;;;4971696;28;20035;-68
2022/01/19 08:07:46;;;;;;;353.27;84.78;;;;;;;;;;4989299;28;20360;-68
2022/01/19 08:10:13;;;;;;;366.55;88.47;;;;;;;;;;4981795;28;20042;-68
2022/01/19 08:12:39;;;;;;;365.50;87.93;;;;;;;;;;4988368;28;20026;-68
2022/01/19 08:15:05;;;;;;;371.15;88.30;;;;;;;;;;4982520;28;20038;-68
2022/01/19 08:17:31;;;;;;;379.95;89.45;;;;;;;;;;4983259;28;20035;-68
2022/01/19 08:19:58;;;;;;;347.70;85.13;;;;;;;;;;4988345;28;20106;-68
2022/01/19 08:22:24;;;;;;;337.20;84.65;;;;;;;;;;4976979;28;20496;-68
2022/01/19 08:24:51;;;;;;;363.25;86.50;;;;;;;;;;4990615;28;20109;-68
2022/01/19 08:27:17;;;;;;;316.13;81.30;;;;;;;;;;4991234;28;20044;-67
2022/01/19 08:29:43;;;;;;;343.80;81.63;;;;;;;;;;4989168;28;20035;-68
2022/01/19 08:32:09;;;;;;;346.67;83.25;;;;;;;;;;4989973;28;20483;-67
2022/01/19 08:34:36;;;;;;;323.08;81.07;;;;;;;;;;4984099;28;20090;-67
2022/01/19 08:37:02;;;;;;;300.58;76.50;;;;;;;;;;4987115;28;20042;-68
2022/01/19 08:39:28;;;;;;;312.27;80.20;;;;;;;;;;4985859;28;20036;-68
2022/01/19 08:41:54;;;;;;;314.25;79.07;;;;;;;;;;4978903;28;20062;-68
2022/01/19 08:44:22;;;;;;;311.25;79.47;;;;;;;;;;4977743;28;20073;-68
2022/01/19 08:46:49;;;;;;;291.30;77.53;;;;;;;;;;4987017;28;20137;-67
2022/01/19 08:49:16;;;;;;;313.92;78.43;;;;;;;;;;4977529;28;20105;-67
2022/01/19 08:51:42;;;;;;;290.20;79.90;;;;;;;;;;4982161;28;20034;-67
2022/01/19 08:54:09;;;;;;;291.92;79.20;;;;;;;;;;4978338;28;20578;-68
2022/01/19 08:56:35;;;;;;;279.55;80.07;;;;;;;;;;4981471;28;20034;-66
2022/01/19 08:59:01;;;;;;;285.92;76.28;;;;;;;;;;4981457;28;20045;-66
2022/01/19 09:01:27;;;;;;;266.05;75.47;;;;;;;;;;4989497;28;20034;-66
2022/01/19 09:03:53;;;;;;;263.27;74.60;;;;;;;;;;4971681;28;20378;-68
2022/01/19 09:06:20;;;;;;;260.73;77.38;;;;;;;;;;4973559;28;20444;-67
2022/01/19 09:08:46;;;;;;;258.02;74.65;;;;;;;;;;4976342;28;20022;-67
2022/01/19 09:11:12;;;;;;;258.48;75.60;;;;;;;;;;4973497;28;20049;-67
2022/01/19 09:13:39;;;;;;;256.80;76.43;;;;;;;;;;4979232;28;20042;-67
2022/01/19 09:16:06;;;;;;;248.50;72.40;;;;;;;;;;4971067;28;20035;-68
2022/01/19 09:18:32;;;;;;;250.18;71.75;;;;;;;;;;4988570;28;20184;-67
2022/01/19 09:20:58;;;;;;;244.30;69.68;;;;;;;;;;4973961;28;20492;-68
2022/01/19 09:23:24;;;;;;;243.32;72.47;;;;;;;;;;4976655;28;20081;-68
2022/01/19 09:25:50;;;;;;;236.07;72.97;;;;;;;;;;4980361;28;20426;-67
2022/01/19 09:28:16;;;;;;;222.30;69.97;;;;;;;;;;4975041;28;20014;-67
2022/01/19 09:30:45;;;;;;;235.38;71.20;;;;;;;;;;4983204;28;20022;-68
2022/01/19 09:33:19;;;;;;;223.25;69.82;;;;;;;;;;4970537;28;20157;-67
2022/01/19 09:38:27;;;;;;;214.00;66.00;;;;;;;;;;4984636;28;20112;-66
2022/01/19 09:40:53;;;;;;;213.65;68.03;;;;;;;;;;4969988;28;20108;-66
2022/01/19 09:43:22;;;;;;;217.00;68.65;;;;;;;;;;4981855;28;20034;-66
2022/01/19 09:45:49;;;;;;;206.40;67.82;;;;;;;;;;4983080;28;20244;-67
2022/01/19 09:48:16;;;;;;;189.45;63.88;;;;;;;;;;4982003;28;20035;-67
2022/01/19 09:50:42;;;;;;;186.38;65.40;;;;;;;;;;4983326;28;20027;-68
2022/01/19 09:53:08;;;;;;;195.70;65.72;;;;;;;;;;4969960;28;20034;-67
2022/01/19 09:55:35;;;;;;;199.13;66.53;;;;;;;;;;4977077;28;20154;-67
2022/01/19 09:58:01;;;;;;;193.75;67.00;;;;;;;;;;4978218;28;20030;-68
2022/01/19 10:00:27;;;;;;;182.48;65.95;;;;;;;;;;4977027;28;20041;-68
2022/01/19 10:03:12;;;;;;;198.13;65.25;;;;;;;;;;4979693;28;20070;-68
2022/01/19 10:05:53;;;;;;;191.23;64.38;;;;;;;;;;4986502;28;20507;-68
2022/01/19 10:08:29;;;;;;;185.60;62.83;;;;;;;;;;4970663;28;20035;-68
2022/01/19 10:11:10;;;;;;;180.13;62.10;;;;;;;;;;4971332;28;20055;-67
2022/01/19 10:19:20;;;;;;;164.20;61.47;;;;;;;;;;4970623;28;20531;-67
2022/01/19 10:21:58;;;;;;;170.52;63.00;;;;;;;;;;4970106;28;20031;-67
2022/01/19 10:24:47;;;;;;;173.57;62.22;;;;;;;;;;4971750;28;20452;-68
2022/01/19 10:27:42;;;;;;;155.52;60.90;;;;;;;;;;4988787;28;20038;-68
2022/01/19 10:30:08;;;;;;;158.73;58.90;;;;;;;;;;4974798;28;20031;-67
2022/01/19 10:32:36;;;;;;;165.32;59.65;;;;;;;;;;4976496;28;20046;-67
2022/01/19 10:35:21;;;;;;;140.50;57.20;;;;;;;;;;4988588;28;20026;-68
2022/01/19 10:37:48;;;;;;;153.43;56.22;;;;;;;;;;4981889;28;20306;-67
2022/01/19 10:40:23;;;;;;;143.63;56.38;;;;;;;;;;4971522;28;20034;-67
2022/01/19 10:42:49;;;;;;;143.77;55.22;;;;;;;;;;4971373;28;20038;-68
2022/01/19 10:45:16;;;;;;;142.18;57.13;;;;;;;;;;4978303;28;20134;-67
2022/01/19 10:47:42;;;;;;;141.10;55.78;;;;;;;;;;4975942;28;20058;-68
2022/01/19 10:50:09;;;;;;;149.55;59.08;;;;;;;;;;4976589;28;20101;-67
2022/01/19 10:52:37;;;;;;;144.35;54.63;;;;;;;;;;5005963;28;20548;-68
2022/01/19 10:55:08;;;;;;;148.43;58.20;;;;;;;;;;4974530;28;20149;-68
2022/01/19 10:57:35;;;;;;;133.18;57.17;;;;;;;;;;4978294;28;20064;-68
2022/01/19 11:00:15;;;;;;;131.18;55.38;;;;;;;;;;4977010;28;20030;-67
2022/01/19 11:02:42;;;;;;;126.80;52.85;;;;;;;;;;4977444;28;20034;-68
2022/01/19 11:05:08;;;;;;;123.55;52.95;;;;;;;;;;4991661;28;20026;-68
2022/01/19 11:07:35;;;;;;;113.63;52.25;;;;;;;;;;4975981;28;20380;-66
2022/01/19 11:10:34;;;;;;;123.32;53.17;;;;;;;;;;4989566;28;20033;-66
2022/01/19 11:12:56;;;;;;;120.07;53.15;;;;;;;;;;4989357;28;20046;-66
2022/01/19 11:15:22;;;;;;;110.47;52.03;;;;;;;;;;4976147;28;20034;-66
2022/01/19 11:17:48;;;;;;;111.97;53.40;;;;;;;;;;4991149;28;20062;-66
2022/01/19 11:20:16;;;;;;;115.90;54.25;;;;;;;;;;4973402;28;20530;-67
2022/01/19 11:23:00;;;;;;;121.28;54.42;;;;;;;;;;4982725;28;20045;-67
2022/01/19 11:25:33;;;;;;;121.20;54.00;;;;;;;;;;4992601;28;20054;-67
2022/01/19 11:27:59;;;;;;;124.10;53.47;;;;;;;;;;4989939;28;20027;-66
2022/01/19 11:30:26;;;;;;;118.97;55.78;;;;;;;;;;4987432;28;20385;-67
2022/01/19 11:33:25;;;;;;;121.53;54.08;;;;;;;;;;4984276;28;20050;-66
2022/01/19 11:35:57;;;;;;;113.35;53.75;;;;;;;;;;4975945;28;20065;-67
2022/01/19 11:38:31;;;;;;;111.65;52.20;;;;;;;;;;4980486;28;20026;-67
2022/01/19 11:40:58;;;;;;;113.40;52.25;;;;;;;;;;4981053;28;20542;-67
2022/01/19 11:43:25;;;;;;;115.47;51.13;;;;;;;;;;4978713;28;20041;-67
2022/01/19 11:46:10;;;;;;;118.00;54.85;;;;;;;;;;4984155;28;20244;-69
2022/01/19 11:48:45;;;;;;;105.68;52.13;;;;;;;;;;4976723;28;20045;-67
2022/01/19 11:51:25;;;;;;;110.75;52.15;;;;;;;;;;4985487;28;20031;-67
2022/01/19 11:54:02;;;;;;;102.10;51.03;;;;;;;;;;4979014;28;20065;-67
2022/01/19 11:56:28;;;;;;;108.85;48.47;;;;;;;;;;4972300;28;20042;-67
2022/01/19 11:59:04;;;;;;;105.40;52.42;;;;;;;;;;4976995;28;20113;-66
2022/01/19 12:01:30;;;;;;;106.15;49.67;;;;;;;;;;4986100;28;20069;-66
2022/01/19 12:04:12;;;;;;;105.95;51.92;;;;;;;;;;4973490;28;20066;-66
2022/01/19 12:06:38;;;;;;;106.72;51.60;;;;;;;;;;4982570;28;20027;-66
2022/01/19 12:09:07;;;;;;;114.40;52.22;;;;;;;;;;4975722;28;20118;-67
2022/01/19 12:11:36;;;;;;;105.88;51.42;;;;;;;;;;4977828;28;20041;-66
2022/01/19 12:14:17;;;;;;;98.38;49.38;;;;;;;;;;4987549;28;20045;-67
2022/01/19 12:19:13;;;;;;;97.30;48.35;;;;;;;;;;4976382;28;19913;-67
2022/01/19 12:21:41;;;;;;;95.90;47.17;;;;;;;;;;4977485;28;20031;-67
2022/01/19 12:24:29;;;;;;;92.70;45.70;;;;;;;;;;4974805;28;20337;-67
2022/01/19 12:27:14;;;;;;;95.57;47.92;;;;;;;;;;4979365;28;20097;-67
2022/01/19 12:29:41;;;;;;;86.30;44.75;;;;;;;;;;4997599;28;20023;-67
2022/01/19 12:32:08;;;;;;;97.53;47.13;;;;;;;;;;4982854;28;20080;-67
2022/01/19 12:34:40;;;;;;;91.88;47.60;;;;;;;;;;4973818;28;20490;-67
2022/01/19 12:37:07;;;;;;;89.53;47.58;;;;;;;;;;4985611;28;20413;-67
2022/01/19 12:39:34;;;;;;;100.63;47.53;;;;;;;;;;4981790;28;20459;-67
2022/01/19 12:42:03;;;;;;;89.82;45.03;;;;;;;;;;4993207;28;20034;-67
2022/01/19 12:44:35;;;;;;;100.40;46.10;;;;;;;;;;4991265;28;20027;-67
2022/01/19 12:47:06;;;;;;;85.20;44.58;;;;;;;;;;4973093;28;20369;-66
2022/01/19 12:49:33;;;;;;;88.50;45.88;;;;;;;;;;4986221;28;20042;-67
2022/01/19 12:52:00;;;;;;;92.28;47.03;;;;;;;;;;4984590;28;20031;-66
2022/01/19 12:54:28;;;;;;;98.60;48.00;;;;;;;;;;4972865;28;20060;-66
2022/01/19 12:57:01;;;;;;;97.03;46.80;;;;;;;;;;4982484;28;20124;-66
2022/01/19 12:59:28;;;;;;;101.32;46.75;;;;;;;;;;4971594;28;20038;-66
2022/01/19 13:01:54;;;;;;;94.00;45.92;;;;;;;;;;4989634;28;20034;-67
2022/01/19 13:04:30;;;;;;;90.78;45.30;;;;;;;;;;4972680;28;20127;-66
2022/01/19 13:06:57;;;;;;;93.57;46.35;;;;;;;;;;4987606;28;20327;-66
2022/01/19 13:09:33;;;;;;;98.03;45.75;;;;;;;;;;4988871;28;20026;-66
2022/01/19 13:12:02;;;;;;;93.97;48.70;;;;;;;;;;4989590;28;20500;-66
2022/01/19 13:14:29;;;;;;;86.03;44.03;;;;;;;;;;4984474;28;20030;-66
2022/01/19 13:16:55;;;;;;;92.13;46.28;;;;;;;;;;4981603;28;20062;-67
2022/01/19 13:19:26;;;;;;;96.65;46.92;;;;;;;;;;4987433;28;20034;-66
2022/01/19 13:21:59;;;;;;;88.47;45.95;;;;;;;;;;4987450;28;20547;-67
2022/01/19 13:24:31;;;;;;;91.78;45.50;;;;;;;;;;4977009;28;20053;-67
2022/01/19 13:27:09;;;;;;;90.47;47.10;;;;;;;;;;4988001;28;20036;-66
2022/01/19 13:29:39;;;;;;;98.50;46.60;;;;;;;;;;4988986;28;20034;-67
2022/01/19 13:32:22;;;;;;;92.40;45.65;;;;;;;;;;4971933;28;20019;-67
2022/01/19 13:34:54;;;;;;;92.05;45.75;;;;;;;;;;4979567;28;20472;-67
2022/01/19 13:37:21;;;;;;;79.53;42.25;;;;;;;;;;4989908;28;20022;-67
2022/01/19 13:40:17;;;;;;;92.43;43.22;;;;;;;;;;4991560;28;20027;-66
2022/01/19 13:42:44;;;;;;;95.00;45.85;;;;;;;;;;4975806;28;20125;-67
2022/01/19 13:45:13;;;;;;;94.00;45.05;;;;;;;;;;4977691;28;20035;-66
2022/01/19 13:50:39;;;;;;;91.63;45.75;;;;;;;;;;4979921;28;20081;-67
2022/01/19 13:53:05;;;;;;;89.97;47.50;;;;;;;;;;4970779;28;20042;-66
2022/01/19 13:55:31;;;;;;;97.93;46.63;;;;;;;;;;4970790;28;20034;-66
2022/01/19 13:58:09;;;;;;;96.45;46.83;;;;;;;;;;4970207;28;20094;-66
2022/01/19 14:00:35;;;;;;;106.47;48.33;;;;;;;;;;4991276;28;20096;-66
2022/01/19 14:03:06;;;;;;;98.25;48.63;;;;;;;;;;4972269;28;20087;-67
2022/01/19 14:05:44;;;;;;;97.28;47.47;;;;;;;;;;4981421;28;20087;-67
2022/01/19 14:08:10;;;;;;;92.75;46.72;;;;;;;;;;4971696;28;20114;-67
2022/01/19 14:10:42;;;;;;;98.65;45.53;;;;;;;;;;4979284;28;20129;-67
2022/01/19 14:13:21;;;;;;;98.05;48.03;;;;;;;;;;4970151;28;20080;-66
2022/01/19 14:15:47;;;;;;;99.93;44.65;;;;;;;;;;4987841;28;20038;-66
2022/01/19 14:18:13;;;;;;;94.03;44.42;;;;;;;;;;4978938;28;20050;-67
2022/01/19 14:20:40;;;;;;;92.20;45.75;;;;;;;;;;4978638;28;20042;-66
2022/01/19 14:23:11;;;;;;;102.53;46.70;;;;;;;;;;4970387;28;20191;-66
2022/01/19 14:25:38;;;;;;;102.82;45.28;;;;;;;;;;4981493;28;20058;-67
2022/01/19 14:28:12;;;;;;;110.75;47.78;;;;;;;;;;4973758;28;20065;-67
2022/01/19 14:30:41;;;;;;;103.43;47.08;;;;;;;;;;4975523;28;20158;-67
2022/01/19 14:33:09;;;;;;;107.70;47.50;;;;;;;;;;4978236;28;20026;-68
2022/01/19 14:35:37;;;;;;;99.03;46.53;;;;;;;;;;4983516;28;20026;-67
2022/01/19 14:38:23;;;;;;;111.22;48.63;;;;;;;;;;4989634;28;20030;-67
2022/01/19 14:40:49;;;;;;;103.50;48.92;;;;;;;;;;4984636;28;20050;-68
2022/01/19 14:43:16;;;;;;;106.90;47.47;;;;;;;;;;4973696;28;20059;-67
2022/01/19 14:45:49;;;;;;;114.28;48.67;;;;;;;;;;4983173;28;20030;-67
2022/01/19 14:48:18;;;;;;;121.55;51.97;;;;;;;;;;4987057;28;20098;-67
2022/01/19 14:50:44;;;;;;;115.90;48.10;;;;;;;;;;4992470;28;20040;-66
2022/01/19 14:53:12;;;;;;;114.82;49.50;;;;;;;;;;4979759;28;20050;-66
2022/01/19 14:55:39;;;;;;;113.43;48.97;;;;;;;;;;4990135;28;20542;-66
2022/01/19 14:58:07;;;;;;;123.45;50.95;;;;;;;;;;4990660;28;20125;-66
2022/01/19 15:00:33;;;;;;;126.13;51.35;;;;;;;;;;4980224;28;20030;-67
2022/01/19 15:03:01;;;;;;;121.50;48.92;;;;;;;;;;4977350;28;20037;-67
2022/01/19 15:05:28;;;;;;;120.60;50.22;;;;;;;;;;4974042;28;20131;-67
2022/01/19 15:07:55;;;;;;;120.72;49.75;;;;;;;;;;4978165;28;20046;-67
2022/01/19 15:10:22;;;;;;;129.80;52.58;;;;;;;;;;4987773;28;20491;-67
2022/01/19 15:12:52;;;;;;;117.90;51.00;;;;;;;;;;4986312;28;20042;-67
2022/01/19 15:15:21;;;;;;;125.00;51.13;;;;;;;;;;4986646;28;20031;-67
2022/01/19 15:17:47;;;;;;;125.20;49.42;;;;;;;;;;4985814;28;20285;-67
2022/01/19 15:20:13;;;;;;;122.47;51.00;;;;;;;;;;4983743;28;20118;-67
2022/01/19 15:22:39;;;;;;;132.88;53.35;;;;;;;;;;4984238;28;20171;-66
2022/01/19 15:25:06;;;;;;;122.10;51.28;;;;;;;;;;4985425;28;20036;-67
2022/01/19 15:27:32;;;;;;;133.20;50.72;;;;;;;;;;5011428;28;20034;-67
2022/01/19 15:29:58;;;;;;;134.82;52.15;;;;;;;;;;4980285;28;20033;-67
2022/01/19 15:32:24;;;;;;;130.40;51.42;;;;;;;;;;4989279;28;20496;-67
2022/01/19 15:34:50;;;;;;;138.07;53.13;;;;;;;;;;4976055;28;20495;-67
2022/01/19 15:37:16;;;;;;;115.75;46.85;;;;;;;;;;4980937;28;20056;-67
2022/01/19 15:39:46;;;;;;;118.35;46.72;;;;;;;;;;4981144;28;20057;-67
2022/01/19 15:42:14;;;;;;;105.65;42.80;;;;;;;;;;4983026;28;20034;-68
2022/01/19 15:44:40;;;;;;;102.20;42.38;;;;;;;;;;4976930;28;20089;-67
2022/01/19 15:47:06;;;;;;;120.22;44.50;;;;;;;;;;4980267;28;20027;-68
2022/01/19 15:49:32;;;;;;;112.35;42.13;;;;;;;;;;4978140;28;20042;-68
2022/01/19 15:51:58;;;;;;;103.07;39.55;;;;;;;;;;4972179;28;20169;-66